Time;durP1;ratioP1;P1;durP2;ratioP2;P2;SDS_P1;SDS_P2;PMS_P1;PMS_P2;Temp;Humidity;BMP_temperature;BMP_pressure;BME280_temperature;BME280_humidity;BME280_pressure;Samples;Min_cycle;Max_cycle;Signal;HPM_P1;HPM_P2
2023/03/16 00:01:04;;;;;;;4.13;2.90;;;8.90;99.90;;;;;;5042627;28;20315;-32
2023/03/16 00:03:36;;;;;;;3.80;2.50;;;8.90;99.90;;;;;;5047988;28;20199;-33
2023/03/16 00:06:06;;;;;;;4.10;2.93;;;8.90;99.90;;;;;;5044578;28;20208;-32
2023/03/16 00:08:37;;;;;;;3.13;2.40;;;8.90;99.90;;;;;;5043596;28;20215;-33
2023/03/16 00:11:04;;;;;;;6.37;3.53;;;8.90;99.90;;;;;;5042276;28;20244;-33
2023/03/16 00:13:33;;;;;;;6.17;3.07;;;8.90;99.90;;;;;;5043682;28;20307;-32
2023/03/16 00:16:06;;;;;;;4.80;2.60;;;8.90;99.90;;;;;;5046521;28;20204;-33
2023/03/16 00:18:37;;;;;;;2.80;2.50;;;8.90;99.90;;;;;;5051539;28;20550;-31
2023/03/16 00:21:05;;;;;;;4.00;2.80;;;8.90;99.90;;;;;;5051127;28;20693;-32
2023/03/16 00:23:35;;;;;;;6.47;2.77;;;8.90;99.90;;;;;;5051898;28;20604;-32
2023/03/16 00:26:05;;;;;;;3.70;2.50;;;9.00;99.90;;;;;;5049734;28;20302;-32
2023/03/16 00:28:34;;;;;;;6.00;3.00;;;9.00;99.90;;;;;;5051717;28;20285;-32
2023/03/16 00:31:06;;;;;;;6.10;2.83;;;9.00;99.90;;;;;;5050055;28;20228;-33
2023/03/16 00:33:33;;;;;;;4.07;2.63;;;9.00;99.90;;;;;;5050416;28;20705;-33
2023/03/16 00:36:08;;;;;;;4.20;2.60;;;9.00;99.90;;;;;;5050320;28;20239;-32
2023/03/16 00:38:45;;;;;;;4.90;2.60;;;9.00;99.90;;;;;;5051875;28;20195;-32
2023/03/16 00:41:14;;;;;;;4.57;2.80;;;9.00;99.90;;;;;;5048762;28;20294;-33
2023/03/16 00:43:44;;;;;;;3.80;2.67;;;9.00;99.90;;;;;;5050951;28;20226;-32
2023/03/16 00:46:17;;;;;;;4.33;2.47;;;9.00;99.90;;;;;;5052028;28;20240;-33
2023/03/16 00:48:46;;;;;;;4.47;2.73;;;9.00;99.90;;;;;;5051236;28;20301;-33
2023/03/16 00:51:17;;;;;;;5.63;2.40;;;9.00;99.90;;;;;;5054324;28;20652;-33
2023/03/16 00:53:47;;;;;;;4.03;2.50;;;9.00;99.90;;;;;;5049936;28;20669;-32
2023/03/16 00:56:17;;;;;;;4.23;2.30;;;9.00;99.90;;;;;;5051132;28;20207;-31
2023/03/16 00:58:47;;;;;;;2.40;1.97;;;9.00;99.90;;;;;;5051872;28;20203;-32
2023/03/16 01:01:17;;;;;;;4.07;2.53;;;9.00;99.90;;;;;;5051384;28;20216;-32
2023/03/16 01:03:45;;;;;;;4.63;2.20;;;9.10;99.90;;;;;;5051812;28;20216;-32
2023/03/16 01:06:16;;;;;;;4.53;2.30;;;9.10;99.90;;;;;;5048117;28;20216;-32
2023/03/16 01:08:46;;;;;;;4.33;2.23;;;9.10;99.90;;;;;;5050085;28;20215;-32
2023/03/16 01:11:20;;;;;;;3.33;2.30;;;9.10;99.90;;;;;;5032815;28;20725;-33
2023/03/16 01:13:53;;;;;;;2.60;2.07;;;9.10;99.90;;;;;;5050956;28;20302;-32
2023/03/16 01:16:23;;;;;;;4.80;2.50;;;9.10;99.90;;;;;;5050983;28;20200;-32
2023/03/16 01:18:51;;;;;;;4.67;2.13;;;9.10;99.90;;;;;;5063810;28;20231;-32
2023/03/16 01:21:22;;;;;;;4.07;2.40;;;9.10;99.90;;;;;;5050117;28;20682;-32
2023/03/16 01:23:49;;;;;;;3.50;2.17;;;9.10;99.90;;;;;;5031278;28;20200;-32
2023/03/16 01:26:21;;;;;;;4.13;2.10;;;9.10;99.90;;;;;;5048211;28;20258;-32
2023/03/16 01:28:53;;;;;;;4.63;2.10;;;9.10;99.90;;;;;;5045600;28;20837;-32
2023/03/16 01:31:23;;;;;;;2.87;1.93;;;9.10;99.90;;;;;;5045965;28;20233;-33
2023/03/16 01:33:51;;;;;;;4.20;1.83;;;9.20;99.90;;;;;;5047912;28;20200;-32
2023/03/16 01:36:23;;;;;;;6.47;2.20;;;9.20;99.90;;;;;;5043882;28;20208;-32
2023/03/16 01:38:53;;;;;;;4.93;1.93;;;9.20;99.90;;;;;;5045854;28;20200;-32
2023/03/16 01:41:20;;;;;;;2.97;2.10;;;9.20;99.90;;;;;;5047080;28;20667;-32
2023/03/16 01:43:57;;;;;;;3.20;1.90;;;9.20;99.90;;;;;;5047188;28;20712;-32
2023/03/16 01:46:27;;;;;;;3.90;1.83;;;9.20;99.90;;;;;;5046066;28;20215;-32
2023/03/16 01:49:03;;;;;;;2.83;1.90;;;9.20;99.90;;;;;;5046006;28;20219;-32
2023/03/16 01:51:56;;;;;;;4.50;2.30;;;9.20;99.90;;;;;;5047247;28;20595;-32
2023/03/16 01:54:41;;;;;;;3.87;1.97;;;9.20;99.90;;;;;;5047454;28;20231;-32
2023/03/16 01:57:21;;;;;;;4.80;2.00;;;9.20;99.90;;;;;;5047438;28;20258;-31
2023/03/16 02:00:09;;;;;;;3.37;2.00;;;9.20;99.90;;;;;;5045281;28;20291;-32
2023/03/16 02:02:47;;;;;;;3.83;2.00;;;9.20;99.90;;;;;;5046023;28;20211;-32
2023/03/16 02:05:25;;;;;;;5.87;1.93;;;9.20;99.90;;;;;;5046999;28;20882;-32
2023/03/16 02:07:58;;;;;;;2.13;1.73;;;9.30;99.90;;;;;;5046852;28;20212;-32
2023/03/16 02:10:27;;;;;;;3.97;1.90;;;9.20;99.90;;;;;;5045609;28;20586;-32
2023/03/16 02:13:00;;;;;;;2.83;1.93;;;9.30;99.90;;;;;;5048946;28;20200;-32
2023/03/16 02:15:30;;;;;;;4.20;1.70;;;9.30;99.90;;;;;;5035488;28;20628;-32
2023/03/16 02:17:59;;;;;;;3.70;1.70;;;9.30;99.90;;;;;;5046584;28;20208;-32
2023/03/16 02:20:36;;;;;;;3.67;1.83;;;9.30;99.90;;;;;;5061303;28;20750;-32
2023/03/16 02:23:07;;;;;;;4.17;1.80;;;9.30;99.90;;;;;;5046458;28;20310;-32
2023/03/16 02:25:54;;;;;;;4.37;1.80;;;9.30;99.90;;;;;;5032554;28;20267;-32
2023/03/16 02:28:54;;;;;;;8.77;2.37;;;9.30;99.90;;;;;;5046549;28;20215;-31
2023/03/16 02:31:24;;;;;;;2.97;1.60;;;9.30;99.90;;;;;;5056156;28;20226;-32
2023/03/16 02:33:53;;;;;;;4.23;1.77;;;9.30;99.90;;;;;;5044203;28;20230;-31
2023/03/16 02:36:24;;;;;;;3.37;1.77;;;9.30;99.90;;;;;;5028610;28;20200;-32
2023/03/16 02:38:53;;;;;;;2.77;1.47;;;9.30;99.90;;;;;;5045048;28;20286;-32
2023/03/16 02:41:23;;;;;;;3.17;1.70;;;9.30;99.90;;;;;;5045727;28;20236;-32
2023/03/16 02:44:00;;;;;;;3.07;2.00;;;9.30;99.90;;;;;;5044902;28;20215;-32
2023/03/16 02:46:29;;;;;;;4.40;1.83;;;9.30;99.90;;;;;;5044978;28;20278;-32
2023/03/16 02:49:04;;;;;;;3.23;1.90;;;9.30;99.90;;;;;;5044647;28;20212;-33
2023/03/16 02:51:36;;;;;;;6.27;2.10;;;9.30;99.90;;;;;;5046294;28;20232;-32
2023/03/16 02:54:05;;;;;;;6.83;2.00;;;9.30;99.90;;;;;;5046053;28;20239;-32
2023/03/16 02:56:35;;;;;;;4.87;1.67;;;9.30;99.90;;;;;;5044824;28;20687;-31
2023/03/16 02:59:02;;;;;;;3.93;1.73;;;9.30;99.90;;;;;;5044658;28;20214;-33
2023/03/16 03:01:33;;;;;;;3.17;1.80;;;9.30;99.90;;;;;;5044016;28;20212;-31
2023/03/16 03:04:02;;;;;;;3.83;2.00;;;9.30;99.90;;;;;;5045951;28;20330;-32
2023/03/16 03:06:31;;;;;;;3.57;1.97;;;9.30;99.90;;;;;;5045836;28;20316;-31
2023/03/16 03:09:07;;;;;;;4.83;1.90;;;9.30;99.90;;;;;;5044012;28;20316;-31
2023/03/16 03:11:34;;;;;;;2.03;1.70;;;9.30;99.90;;;;;;5043325;28;20250;-31
2023/03/16 03:14:05;;;;;;;2.83;1.80;;;9.30;99.90;;;;;;5045626;28;20242;-31
2023/03/16 03:16:35;;;;;;;3.83;1.80;;;9.30;99.90;;;;;;5043970;28;20236;-31
2023/03/16 03:19:02;;;;;;;4.20;1.73;;;9.30;99.90;;;;;;5046743;28;20207;-31
2023/03/16 03:21:33;;;;;;;6.30;2.00;;;9.30;99.90;;;;;;5045540;28;20212;-31
2023/03/16 03:24:05;;;;;;;5.00;1.73;;;9.30;99.90;;;;;;5042305;28;20221;-31
2023/03/16 03:26:36;;;;;;;3.23;1.53;;;9.30;99.90;;;;;;5051157;28;20636;-30
2023/03/16 03:29:06;;;;;;;3.23;1.73;;;9.30;99.90;;;;;;5045661;28;20303;-31
2023/03/16 03:31:35;;;;;;;2.03;1.63;;;9.30;99.90;;;;;;5043839;28;20223;-31
2023/03/16 03:34:05;;;;;;;3.13;1.83;;;9.30;99.90;;;;;;5043758;28;20231;-30
2023/03/16 03:36:37;;;;;;;5.83;1.93;;;9.30;99.90;;;;;;5045886;28;20205;-31
2023/03/16 03:39:04;;;;;;;2.33;1.80;;;9.30;99.90;;;;;;5045496;28;20208;-31
2023/03/16 03:41:32;;;;;;;2.53;1.73;;;9.30;99.90;;;;;;5042578;28;20220;-30
2023/03/16 03:44:02;;;;;;;4.00;2.03;;;9.30;99.90;;;;;;5042949;28;20204;-30
2023/03/16 03:46:30;;;;;;;3.20;1.70;;;9.30;99.90;;;;;;5047326;28;20294;-30
2023/03/16 03:49:02;;;;;;;5.10;1.87;;;9.30;99.90;;;;;;5043568;28;20212;-31
2023/03/16 03:51:33;;;;;;;3.17;1.90;;;9.30;99.90;;;;;;5042648;28;20232;-30
2023/03/16 03:54:00;;;;;;;3.20;2.00;;;9.20;99.90;;;;;;5045259;28;20389;-30
2023/03/16 03:56:27;;;;;;;2.70;1.80;;;9.30;99.90;;;;;;5041959;28;20204;-33
2023/03/16 03:58:54;;;;;;;3.43;1.63;;;9.20;99.90;;;;;;5043085;28;20216;-31
2023/03/16 04:01:23;;;;;;;3.57;1.90;;;9.20;99.90;;;;;;5045213;28;20196;-31
2023/03/16 04:03:53;;;;;;;3.20;1.80;;;9.20;99.90;;;;;;5045898;28;20301;-31
2023/03/16 04:06:20;;;;;;;3.13;1.87;;;9.20;99.90;;;;;;5044070;28;20215;-31
2023/03/16 04:08:50;;;;;;;3.50;1.70;;;9.20;99.90;;;;;;5044256;28;20219;-31
2023/03/16 04:11:17;;;;;;;4.43;1.87;;;9.20;99.90;;;;;;5027119;28;20227;-31
2023/03/16 04:13:44;;;;;;;4.47;1.80;;;9.20;99.90;;;;;;5010444;28;20200;-31
2023/03/16 04:16:15;;;;;;;6.83;2.40;;;9.20;99.90;;;;;;5046594;28;20314;-31
2023/03/16 04:18:43;;;;;;;3.20;1.80;;;9.20;99.90;;;;;;5044642;28;20219;-31
2023/03/16 04:21:20;;;;;;;6.60;2.20;;;9.20;99.90;;;;;;5042444;28;20652;-31
2023/03/16 04:23:53;;;;;;;5.63;2.07;;;9.10;99.90;;;;;;5031943;28;20204;-31
2023/03/16 04:26:24;;;;;;;3.67;1.77;;;9.20;99.90;;;;;;5022459;28;20278;-31
2023/03/16 04:28:54;;;;;;;4.50;1.90;;;9.20;99.90;;;;;;5023358;28;20595;-31
2023/03/16 04:31:23;;;;;;;4.03;2.13;;;9.10;99.90;;;;;;5024769;28;20275;-31
2023/03/16 04:33:53;;;;;;;3.70;2.10;;;9.10;99.90;;;;;;5043020;28;20192;-31
2023/03/16 04:36:25;;;;;;;6.00;1.90;;;9.10;99.90;;;;;;5044492;28;20261;-32
2023/03/16 04:38:57;;;;;;;4.50;1.90;;;9.10;99.90;;;;;;5043176;28;20204;-31
2023/03/16 04:41:29;;;;;;;3.47;1.87;;;9.10;99.90;;;;;;5041995;28;20239;-31
2023/03/16 04:43:58;;;;;;;5.10;1.80;;;9.10;99.90;;;;;;5044651;28;20249;-32
2023/03/16 04:46:26;;;;;;;3.50;2.00;;;9.10;99.90;;;;;;5043441;28;20615;-31
2023/03/16 04:48:57;;;;;;;3.57;1.97;;;9.20;99.90;;;;;;5043840;28;20195;-31
2023/03/16 04:51:25;;;;;;;3.90;2.10;;;9.10;99.90;;;;;;5043847;28;20228;-31
2023/03/16 04:53:52;;;;;;;3.73;1.87;;;9.10;99.90;;;;;;5043918;28;20232;-31
2023/03/16 04:56:20;;;;;;;4.00;1.70;;;9.20;99.90;;;;;;5042071;28;20274;-31
2023/03/16 04:58:49;;;;;;;3.03;2.00;;;9.10;99.90;;;;;;5042600;28;20196;-31
2023/03/16 05:01:17;;;;;;;3.17;1.80;;;9.20;99.90;;;;;;5044459;28;20274;-31
2023/03/16 05:03:44;;;;;;;2.67;1.47;;;9.20;99.90;;;;;;5045526;28;20211;-32
2023/03/16 05:06:11;;;;;;;4.03;1.83;;;9.20;99.90;;;;;;5035047;28;20212;-31
2023/03/16 05:08:41;;;;;;;2.60;1.63;;;9.20;99.90;;;;;;5030093;28;20385;-38
2023/03/16 05:11:10;;;;;;;2.80;1.87;;;9.20;99.90;;;;;;5047377;28;20728;-31
2023/03/16 05:13:38;;;;;;;5.93;2.00;;;9.20;99.90;;;;;;5047407;28;20303;-32
2023/03/16 05:16:05;;;;;;;3.03;1.80;;;9.10;99.90;;;;;;5046099;28;20206;-30
2023/03/16 05:18:33;;;;;;;3.50;1.87;;;9.20;99.90;;;;;;5046069;28;20192;-31
2023/03/16 05:21:02;;;;;;;2.63;1.43;;;9.10;99.90;;;;;;5044908;28;20208;-31
2023/03/16 05:23:32;;;;;;;4.30;1.60;;;9.20;99.90;;;;;;5047233;28;20220;-31
2023/03/16 05:25:59;;;;;;;3.37;1.60;;;9.10;99.90;;;;;;5046716;28;20663;-31
2023/03/16 05:28:27;;;;;;;4.83;1.93;;;9.10;99.90;;;;;;5046142;28;20200;-31
2023/03/16 05:31:02;;;;;;;4.43;1.80;;;9.20;99.90;;;;;;5046611;28;20228;-31
2023/03/16 05:33:32;;;;;;;4.00;1.87;;;9.20;99.90;;;;;;5046926;28;20196;-31
2023/03/16 05:36:06;;;;;;;3.93;1.50;;;9.20;99.90;;;;;;5030119;28;20213;-31
2023/03/16 05:38:38;;;;;;;5.40;1.90;;;9.20;99.90;;;;;;5047045;28;20216;-31
2023/03/16 05:41:05;;;;;;;3.00;1.90;;;9.10;99.90;;;;;;5045572;28;20683;-31
2023/03/16 05:43:39;;;;;;;3.03;1.67;;;9.10;99.90;;;;;;5055840;28;20485;-31
2023/03/16 05:46:12;;;;;;;3.83;1.90;;;9.10;99.90;;;;;;5045367;28;20277;-31
2023/03/16 05:48:42;;;;;;;6.33;1.97;;;9.10;99.90;;;;;;5046023;28;20585;-31
2023/03/16 05:51:13;;;;;;;3.17;1.80;;;9.10;99.90;;;;;;5045094;28;20219;-30
2023/03/16 05:53:45;;;;;;;3.40;1.80;;;9.20;99.90;;;;;;5044637;28;20343;-30
2023/03/16 05:56:12;;;;;;;4.60;2.40;;;9.10;99.90;;;;;;5043999;28;20901;-30
2023/03/16 05:58:44;;;;;;;4.43;1.70;;;9.10;99.90;;;;;;5042089;28;20658;-32
2023/03/16 06:01:14;;;;;;;3.27;1.83;;;9.10;99.90;;;;;;5040418;28;20199;-33
2023/03/16 06:03:43;;;;;;;2.80;1.70;;;9.20;99.90;;;;;;5058225;28;20220;-33
2023/03/16 06:06:11;;;;;;;3.23;1.73;;;9.20;99.90;;;;;;5043866;28;20208;-33
2023/03/16 06:08:42;;;;;;;3.33;1.73;;;9.20;99.90;;;;;;5045027;28;20293;-31
2023/03/16 06:11:12;;;;;;;3.93;1.67;;;9.20;99.90;;;;;;5037843;28;20311;-31
2023/03/16 06:13:42;;;;;;;3.10;1.50;;;9.20;99.90;;;;;;5043086;28;20211;-31
2023/03/16 06:16:10;;;;;;;5.73;1.77;;;9.20;99.90;;;;;;5046379;28;20274;-34
2023/03/16 06:18:40;;;;;;;3.37;1.60;;;9.20;99.90;;;;;;5047258;28;20192;-34
2023/03/16 06:21:09;;;;;;;3.00;1.47;;;9.20;99.90;;;;;;5046028;28;20335;-32
2023/03/16 06:23:39;;;;;;;4.30;1.83;;;9.20;99.90;;;;;;5044922;28;20208;-32
2023/03/16 06:26:06;;;;;;;3.70;1.80;;;9.30;99.90;;;;;;5044394;28;20655;-34
2023/03/16 06:28:33;;;;;;;2.53;1.60;;;9.20;99.90;;;;;;5045959;28;20306;-34
2023/03/16 06:31:05;;;;;;;4.80;1.40;;;9.30;99.90;;;;;;5044362;28;20208;-34
2023/03/16 06:33:32;;;;;;;2.37;1.30;;;9.30;99.90;;;;;;5050411;28;20235;-34
2023/03/16 06:36:00;;;;;;;2.63;1.30;;;9.30;99.90;;;;;;5043423;28;20754;-34
2023/03/16 06:38:30;;;;;;;4.70;1.40;;;9.30;99.90;;;;;;5028094;28;20631;-34
2023/03/16 06:41:00;;;;;;;3.93;1.53;;;9.30;99.90;;;;;;5046817;28;20212;-35
2023/03/16 06:43:30;;;;;;;4.10;1.47;;;9.30;99.90;;;;;;5040412;28;20200;-34
2023/03/16 06:46:00;;;;;;;5.03;1.57;;;9.30;99.90;;;;;;5043944;28;20204;-31
2023/03/16 06:48:30;;;;;;;4.83;1.90;;;9.30;99.90;;;;;;5046162;28;20199;-32
2023/03/16 06:51:02;;;;;;;4.00;1.80;;;9.30;99.90;;;;;;5045972;28;20357;-31
2023/03/16 06:53:32;;;;;;;3.77;1.70;;;9.30;99.90;;;;;;5043589;28;20305;-31
2023/03/16 06:56:02;;;;;;;2.10;1.40;;;9.40;99.90;;;;;;5034693;28;20607;-32
2023/03/16 06:58:30;;;;;;;4.70;1.77;;;9.40;99.90;;;;;;5041700;28;20226;-31
2023/03/16 07:01:03;;;;;;;3.23;1.60;;;9.40;99.90;;;;;;5045522;28;20208;-33
2023/03/16 07:03:36;;;;;;;5.00;1.80;;;9.40;99.90;;;;;;5044111;28;20196;-32
2023/03/16 07:06:04;;;;;;;8.10;1.83;;;9.40;99.90;;;;;;5054835;28;20220;-32
2023/03/16 07:08:34;;;;;;;5.43;1.47;;;9.40;99.90;;;;;;5021579;28;20200;-33
2023/03/16 07:11:03;;;;;;;4.83;1.63;;;9.40;99.90;;;;;;5036191;28;20196;-32
2023/03/16 07:13:34;;;;;;;3.10;1.60;;;9.50;99.90;;;;;;5058336;28;20265;-32
2023/03/16 07:16:06;;;;;;;3.03;1.50;;;9.40;99.90;;;;;;5053500;28;20203;-32
2023/03/16 07:18:33;;;;;;;4.67;1.80;;;9.50;99.90;;;;;;5063976;28;20196;-32
2023/03/16 07:21:00;;;;;;;4.90;1.33;;;9.50;99.90;;;;;;5053111;28;20620;-32
2023/03/16 07:23:34;;;;;;;2.97;1.50;;;9.50;99.90;;;;;;5044968;28;20291;-32
2023/03/16 07:26:07;;;;;;;3.63;1.37;;;9.50;99.90;;;;;;5031752;28;20270;-31
2023/03/16 07:28:34;;;;;;;3.13;1.50;;;9.50;99.90;;;;;;5057733;28;20204;-32
2023/03/16 07:31:01;;;;;;;2.70;1.50;;;9.50;99.90;;;;;;5043018;28;20607;-31
2023/03/16 07:33:36;;;;;;;3.10;1.50;;;9.60;99.90;;;;;;5042721;28;20211;-31
2023/03/16 07:36:09;;;;;;;3.93;1.60;;;9.60;99.90;;;;;;5042279;28;20208;-32
2023/03/16 07:38:36;;;;;;;3.97;1.27;;;9.60;99.90;;;;;;5043014;28;20303;-32
2023/03/16 07:41:06;;;;;;;4.50;1.80;;;9.60;99.90;;;;;;5035231;28;20219;-31
2023/03/16 07:43:36;;;;;;;5.40;1.50;;;9.60;99.90;;;;;;5035894;28;20240;-31
2023/03/16 07:46:05;;;;;;;5.93;1.77;;;9.70;99.90;;;;;;5041789;28;20393;-32
2023/03/16 07:48:33;;;;;;;2.73;1.40;;;9.70;99.90;;;;;;5045283;28;20519;-32
2023/03/16 07:51:02;;;;;;;5.37;2.27;;;9.70;99.90;;;;;;5038862;28;20209;-32
2023/03/16 07:53:34;;;;;;;3.37;1.50;;;9.70;99.90;;;;;;5043182;28;20240;-33
2023/03/16 07:56:01;;;;;;;8.13;1.90;;;9.70;99.90;;;;;;5042195;28;20192;-32
2023/03/16 07:58:31;;;;;;;2.50;1.50;;;9.70;99.90;;;;;;5026715;28;20220;-32
2023/03/16 08:01:05;;;;;;;4.93;1.70;;;9.80;99.90;;;;;;5041955;28;20212;-33
2023/03/16 08:03:34;;;;;;;4.90;1.60;;;9.80;99.90;;;;;;5044816;28;20231;-32
2023/03/16 08:06:04;;;;;;;3.53;1.20;;;9.80;99.90;;;;;;5054736;28;20247;-33
2023/03/16 08:08:32;;;;;;;2.50;1.20;;;9.90;99.90;;;;;;5044541;28;20212;-34
2023/03/16 08:11:01;;;;;;;4.70;1.53;;;9.90;99.90;;;;;;5041424;28;20214;-32
2023/03/16 08:13:29;;;;;;;2.47;1.20;;;10.00;99.90;;;;;;5044864;28;20223;-31
2023/03/16 08:16:00;;;;;;;6.30;1.67;;;10.00;99.90;;;;;;5043701;28;20311;-31
2023/03/16 08:18:33;;;;;;;4.00;1.43;;;10.00;99.90;;;;;;5043106;28;20238;-32
2023/03/16 08:21:01;;;;;;;4.30;1.30;;;10.10;99.90;;;;;;5042408;28;20222;-32
2023/03/16 08:23:32;;;;;;;3.63;1.83;;;10.20;99.90;;;;;;5042721;28;20223;-32
2023/03/16 08:26:00;;;;;;;3.80;1.40;;;10.30;99.90;;;;;;5042842;28;20616;-31
2023/03/16 08:28:27;;;;;;;5.23;1.50;;;10.30;99.90;;;;;;5043471;28;20208;-32
2023/03/16 08:30:54;;;;;;;3.73;1.80;;;10.40;99.90;;;;;;5043560;28;20215;-32
2023/03/16 08:33:22;;;;;;;3.10;1.10;;;10.40;99.90;;;;;;5025990;28;20247;-32
2023/03/16 08:35:49;;;;;;;2.10;1.13;;;10.40;99.90;;;;;;5031131;28;20201;-32
2023/03/16 08:38:18;;;;;;;5.10;1.40;;;10.40;99.90;;;;;;5047025;28;20316;-34
2023/03/16 08:40:48;;;;;;;4.67;1.40;;;10.50;99.90;;;;;;5043122;28;20295;-32
2023/03/16 08:43:18;;;;;;;4.20;1.33;;;10.50;99.90;;;;;;5046278;28;20740;-32
2023/03/16 08:45:46;;;;;;;6.40;1.60;;;10.60;99.90;;;;;;5047701;28;21081;-32
2023/03/16 08:48:15;;;;;;;7.13;1.80;;;10.60;99.90;;;;;;5047198;28;20204;-32
2023/03/16 08:50:43;;;;;;;5.10;1.57;;;10.60;99.90;;;;;;5055368;28;20251;-32
2023/03/16 08:53:13;;;;;;;3.63;1.30;;;10.70;99.90;;;;;;5040669;28;20290;-32
2023/03/16 08:55:43;;;;;;;2.00;1.20;;;10.70;99.90;;;;;;5042050;28;20197;-31
2023/03/16 08:58:14;;;;;;;5.87;1.60;;;10.80;99.90;;;;;;5048685;28;20223;-32
2023/03/16 09:00:41;;;;;;;4.57;1.30;;;10.80;99.90;;;;;;5035786;28;20327;-31
2023/03/16 09:03:14;;;;;;;2.13;1.17;;;10.80;99.90;;;;;;5047114;28;20574;-34
2023/03/16 09:05:41;;;;;;;7.27;1.30;;;10.90;99.90;;;;;;5054423;28;20207;-34
2023/03/16 09:08:11;;;;;;;2.53;1.27;;;11.00;99.90;;;;;;5045610;28;20224;-31
2023/03/16 09:10:41;;;;;;;3.07;1.23;;;11.00;99.90;;;;;;5042334;28;20287;-31
2023/03/16 09:13:08;;;;;;;2.03;1.40;;;11.00;99.90;;;;;;5045897;28;20223;-31
2023/03/16 09:15:36;;;;;;;5.77;1.47;;;11.10;99.90;;;;;;5042865;28;20263;-32
2023/03/16 09:18:09;;;;;;;3.60;1.20;;;11.10;99.90;;;;;;5037503;28;20224;-31
2023/03/16 09:20:38;;;;;;;5.83;1.43;;;11.20;99.90;;;;;;5044488;28;20200;-31
2023/03/16 09:23:09;;;;;;;4.10;1.10;;;11.20;99.90;;;;;;5041090;28;20327;-31
2023/03/16 09:25:36;;;;;;;5.70;1.70;;;11.30;99.90;;;;;;5042877;28;20577;-35
2023/03/16 09:28:06;;;;;;;1.90;1.17;;;11.40;99.90;;;;;;5035148;28;20248;-34
2023/03/16 09:30:33;;;;;;;4.97;1.23;;;11.40;99.90;;;;;;5045745;28;20211;-33
2023/03/16 09:33:00;;;;;;;5.13;1.17;;;11.40;99.90;;;;;;5046851;28;20714;-33
2023/03/16 09:35:32;;;;;;;4.47;2.03;;;11.50;99.90;;;;;;5044048;28;20219;-33
2023/03/16 09:38:04;;;;;;;2.43;1.20;;;11.60;99.90;;;;;;5042933;28;20274;-33
2023/03/16 09:40:38;;;;;;;1.83;1.00;;;11.70;99.90;;;;;;5036124;28;20207;-33
2023/03/16 09:43:26;;;;;;;2.77;1.33;;;11.70;99.90;;;;;;5050230;28;20282;-32
2023/03/16 09:46:05;;;;;;;2.87;1.40;;;11.80;99.90;;;;;;5026981;28;20292;-32
2023/03/16 09:48:39;;;;;;;3.30;1.23;;;11.90;99.90;;;;;;5045385;28;20204;-32
2023/03/16 09:51:19;;;;;;;2.57;1.20;;;11.90;99.90;;;;;;5043044;28;20310;-32
2023/03/16 09:53:47;;;;;;;3.73;1.40;;;11.90;99.90;;;;;;5044975;28;21009;-32
2023/03/16 09:56:29;;;;;;;3.67;1.27;;;11.90;99.90;;;;;;5041618;28;20204;-32
2023/03/16 09:59:03;;;;;;;2.03;1.40;;;12.00;99.90;;;;;;5037951;28;20347;-33
2023/03/16 10:01:52;;;;;;;5.10;1.50;;;12.00;99.90;;;;;;5042728;28;20204;-32
2023/03/16 10:04:56;;;;;;;3.43;1.40;;;12.10;99.90;;;;;;5039789;28;20239;-33
2023/03/16 10:07:30;;;;;;;6.63;1.60;;;12.10;99.90;;;;;;4981622;28;20229;-33
2023/03/16 10:10:09;;;;;;;4.80;1.40;;;12.20;99.90;;;;;;5037169;28;20665;-32
2023/03/16 10:12:42;;;;;;;3.63;1.27;;;12.20;99.90;;;;;;5045181;28;20256;-32
2023/03/16 10:15:19;;;;;;;3.70;1.20;;;12.20;99.90;;;;;;5051429;28;20228;-32
2023/03/16 10:17:56;;;;;;;4.27;1.30;;;12.30;99.90;;;;;;5035927;28;20208;-32
2023/03/16 10:20:26;;;;;;;2.17;1.00;;;12.30;99.90;;;;;;5043400;28;20743;-32
2023/03/16 10:22:58;;;;;;;3.53;1.10;;;12.30;99.90;;;;;;5026887;28;20207;-32
2023/03/16 10:25:43;;;;;;;2.33;1.03;;;12.30;99.90;;;;;;5027266;28;20221;-32
2023/03/16 10:28:16;;;;;;;2.40;1.10;;;12.40;99.90;;;;;;5030479;28;20664;-32
2023/03/16 10:30:47;;;;;;;3.20;1.20;;;12.40;99.90;;;;;;5039312;28;20211;-32
2023/03/16 10:33:18;;;;;;;4.67;1.03;;;12.50;99.90;;;;;;5043954;28;20228;-32
2023/03/16 10:36:04;;;;;;;2.87;1.30;;;12.50;99.90;;;;;;5055443;28;20262;-32
2023/03/16 10:38:50;;;;;;;3.77;1.10;;;12.50;99.90;;;;;;5045721;28;20231;-33
2023/03/16 10:41:17;;;;;;;3.67;0.93;;;12.60;99.90;;;;;;5035221;28;20304;-32
2023/03/16 10:43:57;;;;;;;1.40;0.87;;;12.60;99.90;;;;;;5041938;28;20295;-32
2023/03/16 10:46:26;;;;;;;4.17;0.80;;;12.60;99.90;;;;;;5031477;28;20229;-32
2023/03/16 10:48:59;;;;;;;1.90;1.00;;;12.60;99.90;;;;;;5029856;28;20287;-33
2023/03/16 10:51:33;;;;;;;1.10;1.00;;;12.60;99.90;;;;;;5043769;28;20327;-32
2023/03/16 10:54:20;;;;;;;5.13;0.93;;;12.70;99.90;;;;;;5043603;28;20329;-32
2023/03/16 10:56:49;;;;;;;1.63;0.70;;;12.80;99.90;;;;;;5044373;28;20246;-32
2023/03/16 10:59:35;;;;;;;4.93;1.10;;;12.80;99.90;;;;;;5043475;28;20283;-32
2023/03/16 11:02:16;;;;;;;6.50;1.10;;;12.90;99.90;;;;;;5040003;28;20207;-32
2023/03/16 11:04:46;;;;;;;1.53;0.87;;;12.90;99.90;;;;;;5042886;28;20295;-32
2023/03/16 11:07:24;;;;;;;2.83;1.53;;;12.90;99.90;;;;;;5045675;28;20561;-32
2023/03/16 11:09:53;;;;;;;7.77;1.27;;;13.00;99.90;;;;;;5040327;28;20508;-32
2023/03/16 11:12:29;;;;;;;2.40;1.00;;;13.10;99.90;;;;;;5053151;28;20216;-32
2023/03/16 11:15:11;;;;;;;3.27;1.03;;;13.10;99.90;;;;;;5041742;28;20205;-31
2023/03/16 11:17:54;;;;;;;4.90;1.13;;;13.20;99.90;;;;;;5030840;28;20276;-31
2023/03/16 11:20:25;;;;;;;2.40;1.13;;;13.20;99.90;;;;;;5047763;28;20197;-31
2023/03/16 11:22:52;;;;;;;3.87;1.03;;;13.30;99.90;;;;;;5023820;28;20205;-31
2023/03/16 11:25:32;;;;;;;5.77;1.00;;;13.30;99.90;;;;;;5030406;28;20669;-31
2023/03/16 11:28:11;;;;;;;3.83;1.30;;;13.40;99.90;;;;;;5045183;28;20216;-31
2023/03/16 11:30:55;;;;;;;2.30;0.83;;;13.40;99.90;;;;;;5030515;28;20198;-31
2023/03/16 11:33:33;;;;;;;3.37;1.07;;;13.40;99.90;;;;;;5044912;28;20244;-31
2023/03/16 11:36:28;;;;;;;3.83;1.27;;;13.50;99.90;;;;;;5041255;28;20278;-31
2023/03/16 11:38:56;;;;;;;2.67;0.90;;;13.50;99.90;;;;;;5023407;28;20248;-31
2023/03/16 11:41:42;;;;;;;1.58;0.73;;;13.50;99.90;;;;;;5036230;28;20287;-31
2023/03/16 11:44:21;;;;;;;5.87;1.37;;;13.60;99.90;;;;;;5044961;28;20216;-31
2023/03/16 11:47:25;;;;;;;3.70;1.00;;;13.60;99.90;;;;;;5037311;28;20201;-31
2023/03/16 11:50:11;;;;;;;6.33;1.27;;;13.70;99.90;;;;;;5024442;28;20213;-31
2023/03/16 11:53:10;;;;;;;2.33;0.90;;;13.70;99.90;;;;;;5041520;28;20331;-32
2023/03/16 11:55:58;;;;;;;3.20;1.10;;;13.70;99.90;;;;;;5053562;28;20307;-32
2023/03/16 11:58:42;;;;;;;3.17;1.30;;;13.70;99.90;;;;;;5042235;28;20204;-32
2023/03/16 12:01:48;;;;;;;3.80;1.30;;;13.80;99.90;;;;;;5043200;28;20212;-32
2023/03/16 12:04:58;;;;;;;6.63;1.60;;;13.80;99.90;;;;;;4991712;28;20208;-32
2023/03/16 12:07:32;;;;;;;2.40;1.37;;;13.90;99.90;;;;;;5040694;28;20211;-33
2023/03/16 12:10:05;;;;;;;3.07;1.40;;;13.90;99.90;;;;;;5045559;28;20203;-32
2023/03/16 12:13:03;;;;;;;2.70;0.98;;;13.90;99.90;;;;;;5038019;28;20282;-32
2023/03/16 12:15:46;;;;;;;4.23;1.10;;;14.00;99.90;;;;;;5042879;28;20204;-33
2023/03/16 12:18:37;;;;;;;2.83;1.07;;;14.00;99.90;;;;;;5039659;28;20235;-31
2023/03/16 12:21:25;;;;;;;2.03;1.10;;;14.00;99.90;;;;;;5031741;28;20208;-31
2023/03/16 12:23:54;;;;;;;2.93;1.17;;;14.10;99.90;;;;;;5025201;28;20468;-30
2023/03/16 12:26:29;;;;;;;3.33;1.40;;;14.10;99.90;;;;;;5046109;28;20944;-32
2023/03/16 12:29:05;;;;;;;4.73;1.33;;;14.10;99.90;;;;;;5028773;28;20585;-33
2023/03/16 12:31:52;;;;;;;2.27;0.90;;;14.10;99.90;;;;;;5039846;28;20376;-33
2023/03/16 12:34:45;;;;;;;4.53;1.20;;;14.20;99.90;;;;;;5050686;28;20688;-30
2023/03/16 12:37:28;;;;;;;3.10;1.00;;;14.20;99.90;;;;;;5041705;28;20591;-30
2023/03/16 12:40:23;;;;;;;3.83;1.20;;;14.20;99.90;;;;;;5041773;28;20253;-31
2023/03/16 12:43:05;;;;;;;4.20;1.13;;;14.30;99.90;;;;;;5041742;28;20208;-31
2023/03/16 12:45:50;;;;;;;8.50;1.37;;;14.30;99.90;;;;;;5042193;28;20514;-30
2023/03/16 12:48:20;;;;;;;6.35;1.00;;;14.30;99.90;;;;;;5044799;28;20204;-31
2023/03/16 12:50:55;;;;;;;6.97;1.50;;;14.30;99.90;;;;;;5044649;28;20644;-31
2023/03/16 12:53:44;;;;;;;2.63;0.80;;;14.30;99.90;;;;;;5056976;28;20236;-31
2023/03/16 12:56:17;;;;;;;1.80;1.07;;;14.40;99.90;;;;;;5030779;28;20296;-31
2023/03/16 12:58:48;;;;;;;3.50;1.10;;;14.40;99.90;;;;;;5056588;28;20204;-31
2023/03/16 13:01:24;;;;;;;7.03;1.55;;;14.40;99.90;;;;;;5055776;28;20282;-31
2023/03/16 13:04:22;;;;;;;6.57;1.23;;;14.40;99.90;;;;;;5039655;28;20216;-31
2023/03/16 13:06:59;;;;;;;2.17;1.10;;;14.50;99.90;;;;;;5038602;28;20212;-31
2023/03/16 13:09:30;;;;;;;1.73;0.80;;;14.50;99.90;;;;;;5050095;28;20307;-33
2023/03/16 13:12:04;;;;;;;11.07;1.20;;;14.50;99.90;;;;;;5040785;28;20219;-33
2023/03/16 13:14:39;;;;;;;7.07;1.15;;;14.50;99.90;;;;;;5044039;28;20704;-33
2023/03/16 13:17:15;;;;;;;4.80;1.30;;;14.60;99.90;;;;;;5030899;28;20212;-33
2023/03/16 13:19:59;;;;;;;2.65;0.95;;;14.60;99.90;;;;;;5029559;28;20751;-33
2023/03/16 13:22:50;;;;;;;2.47;1.10;;;14.60;99.90;;;;;;5040089;28;20687;-33